sensor_id;sensor_type;location;lat;lon;timestamp;P1;durP1;ratioP1;P2;durP2;ratioP2
80131;SDS011;69442;51.442;10.564;2023-06-19T00:01:28;6.20;;;5.28;;
80131;SDS011;69442;51.442;10.564;2023-06-19T00:03:53;6.57;;;4.47;;
80131;SDS011;69442;51.442;10.564;2023-06-19T00:06:18;7.07;;;5.05;;
80131;SDS011;69442;51.442;10.564;2023-06-19T00:08:44;6.47;;;5.22;;
80131;SDS011;69442;51.442;10.564;2023-06-19T00:11:09;6.72;;;5.10;;
80131;SDS011;69442;51.442;10.564;2023-06-19T00:13:35;6.32;;;5.05;;
80131;SDS011;69442;51.442;10.564;2023-06-19T00:16:00;4.85;;;4.25;;
80131;SDS011;69442;51.442;10.564;2023-06-19T00:18:26;5.72;;;4.35;;
80131;SDS011;69442;51.442;10.564;2023-06-19T00:20:52;5.80;;;4.63;;
80131;SDS011;69442;51.442;10.564;2023-06-19T00:23:19;4.90;;;3.60;;
80131;SDS011;69442;51.442;10.564;2023-06-19T00:25:45;6.22;;;4.38;;
80131;SDS011;69442;51.442;10.564;2023-06-19T00:28:10;6.93;;;4.97;;
80131;SDS011;69442;51.442;10.564;2023-06-19T00:30:38;5.78;;;4.50;;
80131;SDS011;69442;51.442;10.564;2023-06-19T00:33:04;6.03;;;4.65;;
80131;SDS011;69442;51.442;10.564;2023-06-19T00:35:30;8.68;;;4.88;;
80131;SDS011;69442;51.442;10.564;2023-06-19T00:37:55;5.88;;;4.72;;
80131;SDS011;69442;51.442;10.564;2023-06-19T00:40:24;10.48;;;4.90;;
80131;SDS011;69442;51.442;10.564;2023-06-19T00:42:53;10.48;;;4.55;;
80131;SDS011;69442;51.442;10.564;2023-06-19T00:45:19;5.40;;;4.72;;
80131;SDS011;69442;51.442;10.564;2023-06-19T00:47:44;4.88;;;4.38;;
80131;SDS011;69442;51.442;10.564;2023-06-19T00:50:10;11.00;;;4.68;;
80131;SDS011;69442;51.442;10.564;2023-06-19T00:52:36;6.90;;;3.80;;
80131;SDS011;69442;51.442;10.564;2023-06-19T00:55:03;5.35;;;3.50;;
80131;SDS011;69442;51.442;10.564;2023-06-19T00:57:29;6.00;;;4.00;;
80131;SDS011;69442;51.442;10.564;2023-06-19T00:59:55;7.05;;;4.15;;
80131;SDS011;69442;51.442;10.564;2023-06-19T01:02:22;6.30;;;4.60;;
80131;SDS011;69442;51.442;10.564;2023-06-19T01:04:51;5.47;;;4.43;;
80131;SDS011;69442;51.442;10.564;2023-06-19T01:07:19;5.72;;;4.53;;
80131;SDS011;69442;51.442;10.564;2023-06-19T01:09:53;6.80;;;4.78;;
80131;SDS011;69442;51.442;10.564;2023-06-19T01:12:25;5.75;;;4.40;;
80131;SDS011;69442;51.442;10.564;2023-06-19T01:14:59;6.35;;;4.00;;
80131;SDS011;69442;51.442;10.564;2023-06-19T01:17:27;8.02;;;5.03;;
80131;SDS011;69442;51.442;10.564;2023-06-19T01:19:54;8.40;;;4.10;;
80131;SDS011;69442;51.442;10.564;2023-06-19T01:24:56;6.90;;;5.18;;
80131;SDS011;69442;51.442;10.564;2023-06-19T01:27:22;5.40;;;4.80;;
80131;SDS011;69442;51.442;10.564;2023-06-19T01:29:50;7.63;;;5.85;;
80131;SDS011;69442;51.442;10.564;2023-06-19T01:32:19;6.43;;;4.68;;
80131;SDS011;69442;51.442;10.564;2023-06-19T01:34:49;6.28;;;4.88;;
80131;SDS011;69442;51.442;10.564;2023-06-19T01:37:19;17.88;;;5.53;;
80131;SDS011;69442;51.442;10.564;2023-06-19T01:39:45;6.80;;;5.00;;
80131;SDS011;69442;51.442;10.564;2023-06-19T01:42:11;7.10;;;5.05;;
80131;SDS011;69442;51.442;10.564;2023-06-19T01:44:39;6.82;;;5.85;;
80131;SDS011;69442;51.442;10.564;2023-06-19T01:47:08;8.40;;;5.18;;
80131;SDS011;69442;51.442;10.564;2023-06-19T01:49:35;6.95;;;4.47;;
80131;SDS011;69442;51.442;10.564;2023-06-19T01:52:00;8.00;;;5.43;;
80131;SDS011;69442;51.442;10.564;2023-06-19T01:54:26;6.68;;;5.35;;
80131;SDS011;69442;51.442;10.564;2023-06-19T01:56:52;10.15;;;5.40;;
80131;SDS011;69442;51.442;10.564;2023-06-19T01:59:18;7.45;;;5.57;;
80131;SDS011;69442;51.442;10.564;2023-06-19T02:01:43;5.35;;;4.45;;
80131;SDS011;69442;51.442;10.564;2023-06-19T02:04:09;6.05;;;5.00;;
80131;SDS011;69442;51.442;10.564;2023-06-19T02:06:34;6.55;;;4.75;;
80131;SDS011;69442;51.442;10.564;2023-06-19T02:08:59;6.50;;;4.50;;
80131;SDS011;69442;51.442;10.564;2023-06-19T02:11:25;5.43;;;4.43;;
80131;SDS011;69442;51.442;10.564;2023-06-19T02:13:50;5.00;;;4.40;;
80131;SDS011;69442;51.442;10.564;2023-06-19T02:16:16;6.18;;;4.53;;
80131;SDS011;69442;51.442;10.564;2023-06-19T02:18:41;6.43;;;4.88;;
80131;SDS011;69442;51.442;10.564;2023-06-19T02:21:06;8.45;;;5.50;;
80131;SDS011;69442;51.442;10.564;2023-06-19T02:23:32;7.05;;;5.22;;
80131;SDS011;69442;51.442;10.564;2023-06-19T02:25:58;6.50;;;5.28;;
80131;SDS011;69442;51.442;10.564;2023-06-19T02:28:23;6.88;;;4.93;;
80131;SDS011;69442;51.442;10.564;2023-06-19T02:30:48;6.47;;;4.70;;
80131;SDS011;69442;51.442;10.564;2023-06-19T02:33:14;6.60;;;4.68;;
80131;SDS011;69442;51.442;10.564;2023-06-19T02:35:39;5.80;;;4.50;;
80131;SDS011;69442;51.442;10.564;2023-06-19T02:38:06;7.18;;;4.88;;
80131;SDS011;69442;51.442;10.564;2023-06-19T02:40:32;6.60;;;5.18;;
80131;SDS011;69442;51.442;10.564;2023-06-19T02:42:57;5.15;;;4.55;;
80131;SDS011;69442;51.442;10.564;2023-06-19T02:45:22;6.55;;;4.68;;
80131;SDS011;69442;51.442;10.564;2023-06-19T02:47:48;7.18;;;4.65;;
80131;SDS011;69442;51.442;10.564;2023-06-19T02:50:15;7.80;;;5.55;;
80131;SDS011;69442;51.442;10.564;2023-06-19T02:52:40;6.28;;;5.30;;
80131;SDS011;69442;51.442;10.564;2023-06-19T02:55:06;6.38;;;4.57;;
80131;SDS011;69442;51.442;10.564;2023-06-19T02:57:32;5.53;;;4.82;;
80131;SDS011;69442;51.442;10.564;2023-06-19T02:59:58;5.90;;;4.55;;
80131;SDS011;69442;51.442;10.564;2023-06-19T03:02:23;6.65;;;5.32;;
80131;SDS011;69442;51.442;10.564;2023-06-19T03:04:48;7.20;;;5.00;;
80131;SDS011;69442;51.442;10.564;2023-06-19T03:07:15;5.53;;;4.72;;
80131;SDS011;69442;51.442;10.564;2023-06-19T03:09:41;6.43;;;4.53;;
80131;SDS011;69442;51.442;10.564;2023-06-19T03:12:07;6.65;;;5.07;;
80131;SDS011;69442;51.442;10.564;2023-06-19T03:14:33;5.53;;;4.70;;
80131;SDS011;69442;51.442;10.564;2023-06-19T03:16:59;5.32;;;4.55;;
80131;SDS011;69442;51.442;10.564;2023-06-19T03:19:24;5.32;;;4.50;;
80131;SDS011;69442;51.442;10.564;2023-06-19T03:21:50;5.93;;;4.57;;
80131;SDS011;69442;51.442;10.564;2023-06-19T03:24:15;6.35;;;4.75;;
80131;SDS011;69442;51.442;10.564;2023-06-19T03:26:41;6.82;;;4.05;;
80131;SDS011;69442;51.442;10.564;2023-06-19T03:29:06;4.68;;;3.83;;
80131;SDS011;69442;51.442;10.564;2023-06-19T03:31:31;7.07;;;5.65;;
80131;SDS011;69442;51.442;10.564;2023-06-19T03:33:57;5.82;;;4.72;;
80131;SDS011;69442;51.442;10.564;2023-06-19T03:36:22;6.53;;;4.63;;
80131;SDS011;69442;51.442;10.564;2023-06-19T03:38:48;8.40;;;5.65;;
80131;SDS011;69442;51.442;10.564;2023-06-19T03:41:14;8.50;;;4.90;;
80131;SDS011;69442;51.442;10.564;2023-06-19T03:43:39;5.22;;;4.45;;
80131;SDS011;69442;51.442;10.564;2023-06-19T03:46:04;7.18;;;4.35;;
80131;SDS011;69442;51.442;10.564;2023-06-19T03:48:30;5.72;;;4.30;;
80131;SDS011;69442;51.442;10.564;2023-06-19T03:50:55;5.28;;;4.20;;
80131;SDS011;69442;51.442;10.564;2023-06-19T03:53:21;5.85;;;3.70;;
80131;SDS011;69442;51.442;10.564;2023-06-19T03:55:47;4.88;;;4.10;;
80131;SDS011;69442;51.442;10.564;2023-06-19T03:58:12;5.68;;;4.65;;
80131;SDS011;69442;51.442;10.564;2023-06-19T04:00:37;5.45;;;3.90;;
80131;SDS011;69442;51.442;10.564;2023-06-19T04:03:03;6.68;;;4.78;;
80131;SDS011;69442;51.442;10.564;2023-06-19T04:05:28;7.18;;;4.78;;
80131;SDS011;69442;51.442;10.564;2023-06-19T04:07:54;5.88;;;5.03;;
80131;SDS011;69442;51.442;10.564;2023-06-19T04:10:19;8.70;;;5.40;;
80131;SDS011;69442;51.442;10.564;2023-06-19T04:12:44;7.85;;;5.38;;
80131;SDS011;69442;51.442;10.564;2023-06-19T04:15:11;6.70;;;4.82;;
80131;SDS011;69442;51.442;10.564;2023-06-19T04:17:36;5.22;;;4.32;;
80131;SDS011;69442;51.442;10.564;2023-06-19T04:20:02;4.57;;;4.10;;
80131;SDS011;69442;51.442;10.564;2023-06-19T04:22:35;6.00;;;5.07;;
80131;SDS011;69442;51.442;10.564;2023-06-19T04:25:02;5.15;;;3.80;;
80131;SDS011;69442;51.442;10.564;2023-06-19T04:27:27;6.13;;;4.18;;
80131;SDS011;69442;51.442;10.564;2023-06-19T04:29:53;6.00;;;5.13;;
80131;SDS011;69442;51.442;10.564;2023-06-19T04:32:18;6.90;;;5.38;;
80131;SDS011;69442;51.442;10.564;2023-06-19T04:34:43;12.38;;;5.82;;
80131;SDS011;69442;51.442;10.564;2023-06-19T04:37:11;8.68;;;5.50;;
80131;SDS011;69442;51.442;10.564;2023-06-19T04:39:36;6.63;;;5.32;;
80131;SDS011;69442;51.442;10.564;2023-06-19T04:42:02;6.13;;;4.95;;
80131;SDS011;69442;51.442;10.564;2023-06-19T04:44:27;6.00;;;4.95;;
80131;SDS011;69442;51.442;10.564;2023-06-19T04:46:55;5.70;;;4.93;;
80131;SDS011;69442;51.442;10.564;2023-06-19T04:49:29;5.38;;;4.80;;
80131;SDS011;69442;51.442;10.564;2023-06-19T04:51:57;9.13;;;4.07;;
80131;SDS011;69442;51.442;10.564;2023-06-19T04:54:24;5.60;;;4.32;;
80131;SDS011;69442;51.442;10.564;2023-06-19T04:56:50;6.43;;;3.85;;
80131;SDS011;69442;51.442;10.564;2023-06-19T04:59:16;5.28;;;4.30;;
80131;SDS011;69442;51.442;10.564;2023-06-19T05:01:43;5.45;;;4.38;;
80131;SDS011;69442;51.442;10.564;2023-06-19T05:04:09;7.82;;;5.82;;
80131;SDS011;69442;51.442;10.564;2023-06-19T05:06:36;9.63;;;4.78;;
80131;SDS011;69442;51.442;10.564;2023-06-19T05:09:01;7.80;;;6.07;;
80131;SDS011;69442;51.442;10.564;2023-06-19T05:11:26;9.23;;;6.32;;
80131;SDS011;69442;51.442;10.564;2023-06-19T05:13:52;7.63;;;6.18;;
80131;SDS011;69442;51.442;10.564;2023-06-19T05:16:17;8.43;;;5.68;;
80131;SDS011;69442;51.442;10.564;2023-06-19T05:18:44;7.28;;;5.72;;
80131;SDS011;69442;51.442;10.564;2023-06-19T05:21:10;8.50;;;5.72;;
80131;SDS011;69442;51.442;10.564;2023-06-19T05:23:35;7.80;;;5.75;;
80131;SDS011;69442;51.442;10.564;2023-06-19T05:26:01;6.85;;;5.13;;
80131;SDS011;69442;51.442;10.564;2023-06-19T05:28:26;7.55;;;5.38;;
80131;SDS011;69442;51.442;10.564;2023-06-19T05:30:51;5.57;;;4.90;;
80131;SDS011;69442;51.442;10.564;2023-06-19T05:33:17;5.95;;;4.95;;
80131;SDS011;69442;51.442;10.564;2023-06-19T05:35:42;6.43;;;4.80;;
80131;SDS011;69442;51.442;10.564;2023-06-19T05:38:17;7.07;;;5.78;;
80131;SDS011;69442;51.442;10.564;2023-06-19T05:40:42;6.63;;;5.38;;
80131;SDS011;69442;51.442;10.564;2023-06-19T05:43:08;7.63;;;5.55;;
80131;SDS011;69442;51.442;10.564;2023-06-19T05:45:33;6.68;;;5.22;;
80131;SDS011;69442;51.442;10.564;2023-06-19T05:47:59;7.85;;;5.95;;
80131;SDS011;69442;51.442;10.564;2023-06-19T05:50:24;6.22;;;5.63;;
80131;SDS011;69442;51.442;10.564;2023-06-19T05:52:49;8.77;;;5.72;;
80131;SDS011;69442;51.442;10.564;2023-06-19T05:55:15;9.40;;;5.53;;
80131;SDS011;69442;51.442;10.564;2023-06-19T05:57:40;8.43;;;5.70;;
80131;SDS011;69442;51.442;10.564;2023-06-19T06:00:07;9.02;;;6.30;;
80131;SDS011;69442;51.442;10.564;2023-06-19T06:02:35;6.97;;;5.47;;
80131;SDS011;69442;51.442;10.564;2023-06-19T06:05:01;7.43;;;5.75;;
80131;SDS011;69442;51.442;10.564;2023-06-19T06:07:26;9.27;;;5.90;;
80131;SDS011;69442;51.442;10.564;2023-06-19T06:09:53;7.97;;;5.45;;
80131;SDS011;69442;51.442;10.564;2023-06-19T06:12:19;7.43;;;5.55;;
80131;SDS011;69442;51.442;10.564;2023-06-19T06:14:44;7.35;;;5.68;;
80131;SDS011;69442;51.442;10.564;2023-06-19T06:17:09;7.70;;;5.15;;
80131;SDS011;69442;51.442;10.564;2023-06-19T06:19:35;6.55;;;5.28;;
80131;SDS011;69442;51.442;10.564;2023-06-19T06:22:02;7.10;;;5.82;;
80131;SDS011;69442;51.442;10.564;2023-06-19T06:24:27;6.03;;;5.43;;
80131;SDS011;69442;51.442;10.564;2023-06-19T06:26:53;6.30;;;4.85;;
80131;SDS011;69442;51.442;10.564;2023-06-19T06:29:18;6.07;;;5.00;;
80131;SDS011;69442;51.442;10.564;2023-06-19T06:31:45;6.88;;;5.22;;
80131;SDS011;69442;51.442;10.564;2023-06-19T06:34:12;6.53;;;4.78;;
80131;SDS011;69442;51.442;10.564;2023-06-19T06:36:37;9.48;;;5.43;;
80131;SDS011;69442;51.442;10.564;2023-06-19T06:39:03;6.47;;;4.93;;
80131;SDS011;69442;51.442;10.564;2023-06-19T06:41:28;6.03;;;4.70;;
80131;SDS011;69442;51.442;10.564;2023-06-19T06:43:54;5.50;;;4.65;;
80131;SDS011;69442;51.442;10.564;2023-06-19T06:46:20;6.75;;;5.25;;
80131;SDS011;69442;51.442;10.564;2023-06-19T06:48:46;6.30;;;4.85;;
80131;SDS011;69442;51.442;10.564;2023-06-19T06:51:11;7.20;;;5.93;;
80131;SDS011;69442;51.442;10.564;2023-06-19T06:53:36;6.68;;;5.10;;
80131;SDS011;69442;51.442;10.564;2023-06-19T06:56:02;10.40;;;6.47;;
80131;SDS011;69442;51.442;10.564;2023-06-19T06:58:28;7.93;;;5.68;;
80131;SDS011;69442;51.442;10.564;2023-06-19T07:00:55;8.23;;;5.80;;
80131;SDS011;69442;51.442;10.564;2023-06-19T07:03:21;9.13;;;6.03;;
80131;SDS011;69442;51.442;10.564;2023-06-19T07:05:47;7.95;;;6.45;;
80131;SDS011;69442;51.442;10.564;2023-06-19T07:08:13;9.18;;;5.88;;
80131;SDS011;69442;51.442;10.564;2023-06-19T07:10:38;7.53;;;6.07;;
80131;SDS011;69442;51.442;10.564;2023-06-19T07:13:04;6.35;;;5.60;;
80131;SDS011;69442;51.442;10.564;2023-06-19T07:15:29;7.82;;;6.18;;
80131;SDS011;69442;51.442;10.564;2023-06-19T07:17:55;7.95;;;5.90;;
80131;SDS011;69442;51.442;10.564;2023-06-19T07:20:21;8.50;;;7.10;;
80131;SDS011;69442;51.442;10.564;2023-06-19T07:22:46;8.40;;;5.72;;
80131;SDS011;69442;51.442;10.564;2023-06-19T07:25:12;6.82;;;5.95;;
80131;SDS011;69442;51.442;10.564;2023-06-19T07:27:38;8.00;;;5.90;;
80131;SDS011;69442;51.442;10.564;2023-06-19T07:30:05;9.88;;;6.30;;
80131;SDS011;69442;51.442;10.564;2023-06-19T07:32:31;9.18;;;6.35;;
80131;SDS011;69442;51.442;10.564;2023-06-19T07:34:57;7.82;;;5.68;;
80131;SDS011;69442;51.442;10.564;2023-06-19T07:37:23;8.40;;;6.07;;
80131;SDS011;69442;51.442;10.564;2023-06-19T07:39:48;7.35;;;5.90;;
80131;SDS011;69442;51.442;10.564;2023-06-19T07:42:15;7.63;;;6.70;;
80131;SDS011;69442;51.442;10.564;2023-06-19T07:44:42;7.28;;;6.38;;
80131;SDS011;69442;51.442;10.564;2023-06-19T07:47:08;7.65;;;6.50;;
80131;SDS011;69442;51.442;10.564;2023-06-19T07:49:34;8.93;;;5.95;;
80131;SDS011;69442;51.442;10.564;2023-06-19T07:52:00;7.90;;;5.90;;
80131;SDS011;69442;51.442;10.564;2023-06-19T07:54:26;7.85;;;6.05;;
80131;SDS011;69442;51.442;10.564;2023-06-19T07:56:51;8.27;;;6.35;;
80131;SDS011;69442;51.442;10.564;2023-06-19T07:59:17;7.03;;;6.32;;
80131;SDS011;69442;51.442;10.564;2023-06-19T08:01:42;8.80;;;6.15;;
80131;SDS011;69442;51.442;10.564;2023-06-19T08:04:08;8.45;;;6.45;;
80131;SDS011;69442;51.442;10.564;2023-06-19T08:06:33;7.88;;;6.13;;
80131;SDS011;69442;51.442;10.564;2023-06-19T08:08:59;9.10;;;6.28;;
80131;SDS011;69442;51.442;10.564;2023-06-19T08:11:24;8.32;;;6.00;;
80131;SDS011;69442;51.442;10.564;2023-06-19T08:13:50;9.43;;;6.93;;
80131;SDS011;69442;51.442;10.564;2023-06-19T08:16:15;7.28;;;5.50;;
80131;SDS011;69442;51.442;10.564;2023-06-19T08:18:41;8.48;;;6.70;;
80131;SDS011;69442;51.442;10.564;2023-06-19T08:21:07;8.18;;;5.95;;
80131;SDS011;69442;51.442;10.564;2023-06-19T08:23:32;7.53;;;6.28;;
80131;SDS011;69442;51.442;10.564;2023-06-19T08:25:58;8.63;;;6.57;;
80131;SDS011;69442;51.442;10.564;2023-06-19T08:28:23;8.70;;;6.65;;
80131;SDS011;69442;51.442;10.564;2023-06-19T08:30:49;8.55;;;6.60;;
80131;SDS011;69442;51.442;10.564;2023-06-19T08:33:14;7.55;;;5.97;;
80131;SDS011;69442;51.442;10.564;2023-06-19T08:35:40;7.95;;;6.53;;
80131;SDS011;69442;51.442;10.564;2023-06-19T08:38:05;7.50;;;5.80;;
80131;SDS011;69442;51.442;10.564;2023-06-19T08:40:30;3.50;;;2.90;;
80131;SDS011;69442;51.442;10.564;2023-06-19T08:42:56;7.40;;;5.15;;
80131;SDS011;69442;51.442;10.564;2023-06-19T08:45:21;9.02;;;6.05;;
80131;SDS011;69442;51.442;10.564;2023-06-19T08:47:47;7.07;;;6.35;;
80131;SDS011;69442;51.442;10.564;2023-06-19T08:50:14;3.80;;;2.92;;
80131;SDS011;69442;51.442;10.564;2023-06-19T08:52:40;5.35;;;3.72;;
80131;SDS011;69442;51.442;10.564;2023-06-19T08:55:06;6.50;;;5.80;;
80131;SDS011;69442;51.442;10.564;2023-06-19T08:57:38;8.07;;;6.68;;
80131;SDS011;69442;51.442;10.564;2023-06-19T09:00:04;6.32;;;5.53;;
80131;SDS011;69442;51.442;10.564;2023-06-19T09:02:41;7.82;;;6.25;;
80131;SDS011;69442;51.442;10.564;2023-06-19T09:05:10;7.80;;;6.40;;
80131;SDS011;69442;51.442;10.564;2023-06-19T09:07:44;7.93;;;6.38;;
80131;SDS011;69442;51.442;10.564;2023-06-19T09:10:18;9.30;;;6.95;;
80131;SDS011;69442;51.442;10.564;2023-06-19T09:12:55;8.48;;;5.78;;
80131;SDS011;69442;51.442;10.564;2023-06-19T09:15:30;6.45;;;5.85;;
80131;SDS011;69442;51.442;10.564;2023-06-19T09:18:03;7.47;;;6.40;;
80131;SDS011;69442;51.442;10.564;2023-06-19T09:20:29;6.72;;;5.85;;
80131;SDS011;69442;51.442;10.564;2023-06-19T09:22:56;7.07;;;5.93;;
80131;SDS011;69442;51.442;10.564;2023-06-19T09:25:21;7.85;;;5.07;;
80131;SDS011;69442;51.442;10.564;2023-06-19T09:27:48;7.65;;;6.22;;
80131;SDS011;69442;51.442;10.564;2023-06-19T09:30:16;5.93;;;5.15;;
80131;SDS011;69442;51.442;10.564;2023-06-19T09:32:42;6.72;;;5.03;;
80131;SDS011;69442;51.442;10.564;2023-06-19T09:35:07;5.53;;;4.90;;
80131;SDS011;69442;51.442;10.564;2023-06-19T09:37:33;8.85;;;6.28;;
80131;SDS011;69442;51.442;10.564;2023-06-19T09:39:59;6.60;;;5.90;;
80131;SDS011;69442;51.442;10.564;2023-06-19T09:42:33;5.10;;;4.50;;
80131;SDS011;69442;51.442;10.564;2023-06-19T09:45:06;6.72;;;5.72;;
80131;SDS011;69442;51.442;10.564;2023-06-19T09:47:36;5.90;;;5.13;;
80131;SDS011;69442;51.442;10.564;2023-06-19T09:50:02;8.00;;;6.85;;
80131;SDS011;69442;51.442;10.564;2023-06-19T09:52:28;6.75;;;5.68;;
80131;SDS011;69442;51.442;10.564;2023-06-19T09:54:54;6.47;;;5.82;;
80131;SDS011;69442;51.442;10.564;2023-06-19T09:57:21;5.35;;;4.05;;
80131;SDS011;69442;51.442;10.564;2023-06-19T09:59:51;5.90;;;5.30;;
80131;SDS011;69442;51.442;10.564;2023-06-19T10:02:25;5.03;;;4.53;;
80131;SDS011;69442;51.442;10.564;2023-06-19T10:04:53;8.50;;;5.35;;
80131;SDS011;69442;51.442;10.564;2023-06-19T10:07:23;5.72;;;4.90;;
80131;SDS011;69442;51.442;10.564;2023-06-19T10:09:59;7.25;;;6.15;;
80131;SDS011;69442;51.442;10.564;2023-06-19T10:17:35;5.07;;;4.45;;
80131;SDS011;69442;51.442;10.564;2023-06-19T10:20:02;5.95;;;5.35;;
80131;SDS011;69442;51.442;10.564;2023-06-19T10:22:31;6.10;;;5.50;;
80131;SDS011;69442;51.442;10.564;2023-06-19T10:24:56;7.38;;;6.10;;
80131;SDS011;69442;51.442;10.564;2023-06-19T10:27:23;7.45;;;5.45;;
80131;SDS011;69442;51.442;10.564;2023-06-19T10:29:53;6.38;;;5.45;;
80131;SDS011;69442;51.442;10.564;2023-06-19T10:32:19;6.30;;;5.70;;
80131;SDS011;69442;51.442;10.564;2023-06-19T10:34:47;6.47;;;5.88;;
80131;SDS011;69442;51.442;10.564;2023-06-19T10:37:16;6.20;;;5.60;;
80131;SDS011;69442;51.442;10.564;2023-06-19T10:39:42;7.47;;;5.70;;
80131;SDS011;69442;51.442;10.564;2023-06-19T10:42:09;5.60;;;5.10;;
80131;SDS011;69442;51.442;10.564;2023-06-19T10:44:35;5.72;;;5.13;;
80131;SDS011;69442;51.442;10.564;2023-06-19T10:47:03;6.75;;;5.38;;
80131;SDS011;69442;51.442;10.564;2023-06-19T10:49:29;5.65;;;4.90;;
80131;SDS011;69442;51.442;10.564;2023-06-19T10:51:54;4.78;;;4.28;;
80131;SDS011;69442;51.442;10.564;2023-06-19T10:54:24;6.55;;;5.70;;
80131;SDS011;69442;51.442;10.564;2023-06-19T10:56:50;6.18;;;5.57;;
80131;SDS011;69442;51.442;10.564;2023-06-19T10:59:16;4.72;;;4.22;;
80131;SDS011;69442;51.442;10.564;2023-06-19T11:01:42;5.68;;;4.90;;
80131;SDS011;69442;51.442;10.564;2023-06-19T11:04:13;6.18;;;5.57;;
80131;SDS011;69442;51.442;10.564;2023-06-19T11:06:40;5.95;;;5.35;;
80131;SDS011;69442;51.442;10.564;2023-06-19T11:09:06;7.72;;;5.70;;
80131;SDS011;69442;51.442;10.564;2023-06-19T11:11:43;5.60;;;4.68;;
80131;SDS011;69442;51.442;10.564;2023-06-19T11:14:11;6.25;;;5.38;;
80131;SDS011;69442;51.442;10.564;2023-06-19T11:16:38;4.82;;;3.58;;
80131;SDS011;69442;51.442;10.564;2023-06-19T11:19:07;5.93;;;5.22;;
80131;SDS011;69442;51.442;10.564;2023-06-19T11:21:34;8.07;;;5.18;;
80131;SDS011;69442;51.442;10.564;2023-06-19T11:24:04;6.50;;;4.75;;
80131;SDS011;69442;51.442;10.564;2023-06-19T11:26:43;6.53;;;5.88;;
80131;SDS011;69442;51.442;10.564;2023-06-19T11:29:24;4.95;;;4.40;;
80131;SDS011;69442;51.442;10.564;2023-06-19T11:32:07;6.97;;;5.35;;
80131;SDS011;69442;51.442;10.564;2023-06-19T11:34:48;4.72;;;3.88;;
80131;SDS011;69442;51.442;10.564;2023-06-19T11:37:14;5.78;;;4.82;;
80131;SDS011;69442;51.442;10.564;2023-06-19T11:39:41;7.18;;;5.00;;
80131;SDS011;69442;51.442;10.564;2023-06-19T11:42:09;5.47;;;4.63;;
80131;SDS011;69442;51.442;10.564;2023-06-19T11:44:34;6.30;;;5.47;;
80131;SDS011;69442;51.442;10.564;2023-06-19T11:47:00;6.18;;;5.20;;
80131;SDS011;69442;51.442;10.564;2023-06-19T11:49:25;6.30;;;5.70;;
80131;SDS011;69442;51.442;10.564;2023-06-19T11:51:51;5.72;;;5.22;;
80131;SDS011;69442;51.442;10.564;2023-06-19T11:54:17;6.75;;;6.03;;
80131;SDS011;69442;51.442;10.564;2023-06-19T11:56:45;5.50;;;4.82;;
80131;SDS011;69442;51.442;10.564;2023-06-19T11:59:12;6.65;;;4.40;;
80131;SDS011;69442;51.442;10.564;2023-06-19T12:01:39;5.85;;;4.97;;
80131;SDS011;69442;51.442;10.564;2023-06-19T12:04:04;5.43;;;4.93;;
80131;SDS011;69442;51.442;10.564;2023-06-19T12:06:30;6.20;;;5.38;;
80131;SDS011;69442;51.442;10.564;2023-06-19T12:08:56;5.47;;;4.97;;
80131;SDS011;69442;51.442;10.564;2023-06-19T12:11:22;6.13;;;5.05;;
80131;SDS011;69442;51.442;10.564;2023-06-19T12:13:47;6.15;;;4.65;;
80131;SDS011;69442;51.442;10.564;2023-06-19T12:16:13;7.47;;;4.82;;
80131;SDS011;69442;51.442;10.564;2023-06-19T12:18:39;4.53;;;4.05;;
80131;SDS011;69442;51.442;10.564;2023-06-19T12:21:05;5.13;;;4.57;;
80131;SDS011;69442;51.442;10.564;2023-06-19T12:23:30;4.68;;;4.18;;
80131;SDS011;69442;51.442;10.564;2023-06-19T12:25:56;4.90;;;4.40;;
80131;SDS011;69442;51.442;10.564;2023-06-19T12:28:22;5.95;;;4.70;;
80131;SDS011;69442;51.442;10.564;2023-06-19T12:30:48;4.65;;;4.22;;
80131;SDS011;69442;51.442;10.564;2023-06-19T12:33:17;4.90;;;4.22;;
80131;SDS011;69442;51.442;10.564;2023-06-19T12:35:43;4.63;;;4.13;;
80131;SDS011;69442;51.442;10.564;2023-06-19T12:38:09;4.43;;;3.90;;
80131;SDS011;69442;51.442;10.564;2023-06-19T12:40:36;5.68;;;4.47;;
80131;SDS011;69442;51.442;10.564;2023-06-19T12:43:02;5.72;;;4.68;;
80131;SDS011;69442;51.442;10.564;2023-06-19T12:45:27;5.75;;;4.72;;
80131;SDS011;69442;51.442;10.564;2023-06-19T12:47:53;5.57;;;4.22;;
80131;SDS011;69442;51.442;10.564;2023-06-19T12:50:18;5.60;;;4.65;;
80131;SDS011;69442;51.442;10.564;2023-06-19T12:52:44;5.50;;;4.85;;
80131;SDS011;69442;51.442;10.564;2023-06-19T12:55:09;5.88;;;4.72;;
80131;SDS011;69442;51.442;10.564;2023-06-19T12:57:34;5.07;;;4.28;;
80131;SDS011;69442;51.442;10.564;2023-06-19T13:00:00;7.65;;;4.22;;
80131;SDS011;69442;51.442;10.564;2023-06-19T13:02:25;4.88;;;4.28;;
80131;SDS011;69442;51.442;10.564;2023-06-19T13:04:51;4.30;;;3.40;;
80131;SDS011;69442;51.442;10.564;2023-06-19T13:07:17;6.55;;;4.50;;
80131;SDS011;69442;51.442;10.564;2023-06-19T13:09:42;6.63;;;4.15;;
80131;SDS011;69442;51.442;10.564;2023-06-19T13:12:08;4.18;;;3.72;;
80131;SDS011;69442;51.442;10.564;2023-06-19T13:14:33;3.15;;;2.78;;
80131;SDS011;69442;51.442;10.564;2023-06-19T13:16:59;4.57;;;4.15;;
80131;SDS011;69442;51.442;10.564;2023-06-19T13:19:25;5.30;;;4.20;;
80131;SDS011;69442;51.442;10.564;2023-06-19T13:21:50;5.10;;;3.85;;
80131;SDS011;69442;51.442;10.564;2023-06-19T13:24:16;5.63;;;4.38;;
80131;SDS011;69442;51.442;10.564;2023-06-19T13:26:42;4.28;;;3.85;;
80131;SDS011;69442;51.442;10.564;2023-06-19T13:29:08;4.35;;;3.95;;
80131;SDS011;69442;51.442;10.564;2023-06-19T13:31:34;4.22;;;3.80;;
80131;SDS011;69442;51.442;10.564;2023-06-19T13:33:59;5.40;;;4.10;;
80131;SDS011;69442;51.442;10.564;2023-06-19T13:36:24;5.15;;;3.30;;
80131;SDS011;69442;51.442;10.564;2023-06-19T13:38:51;4.82;;;4.10;;
80131;SDS011;69442;51.442;10.564;2023-06-19T13:41:17;4.07;;;3.67;;
80131;SDS011;69442;51.442;10.564;2023-06-19T13:43:42;4.60;;;3.50;;
80131;SDS011;69442;51.442;10.564;2023-06-19T13:46:10;4.15;;;3.45;;
80131;SDS011;69442;51.442;10.564;2023-06-19T13:48:36;6.65;;;3.60;;
80131;SDS011;69442;51.442;10.564;2023-06-19T13:51:01;3.72;;;3.28;;
80131;SDS011;69442;51.442;10.564;2023-06-19T13:53:27;4.22;;;3.83;;
80131;SDS011;69442;51.442;10.564;2023-06-19T13:55:53;5.32;;;3.88;;
80131;SDS011;69442;51.442;10.564;2023-06-19T13:58:19;4.70;;;3.88;;
80131;SDS011;69442;51.442;10.564;2023-06-19T14:00:44;6.38;;;3.75;;
80131;SDS011;69442;51.442;10.564;2023-06-19T14:03:10;4.68;;;3.50;;
80131;SDS011;69442;51.442;10.564;2023-06-19T14:05:35;3.75;;;3.17;;
80131;SDS011;69442;51.442;10.564;2023-06-19T14:08:01;6.00;;;3.95;;
80131;SDS011;69442;51.442;10.564;2023-06-19T14:10:28;4.07;;;3.67;;
80131;SDS011;69442;51.442;10.564;2023-06-19T14:12:53;3.95;;;3.50;;
80131;SDS011;69442;51.442;10.564;2023-06-19T14:15:19;4.88;;;3.83;;
80131;SDS011;69442;51.442;10.564;2023-06-19T14:17:44;4.05;;;3.40;;
80131;SDS011;69442;51.442;10.564;2023-06-19T14:20:10;4.43;;;3.70;;
80131;SDS011;69442;51.442;10.564;2023-06-19T14:22:36;4.32;;;3.92;;
80131;SDS011;69442;51.442;10.564;2023-06-19T14:25:01;4.85;;;3.60;;
80131;SDS011;69442;51.442;10.564;2023-06-19T14:27:27;3.65;;;3.13;;
80131;SDS011;69442;51.442;10.564;2023-06-19T14:29:55;3.80;;;3.38;;
80131;SDS011;69442;51.442;10.564;2023-06-19T14:32:21;5.05;;;3.60;;
80131;SDS011;69442;51.442;10.564;2023-06-19T14:34:47;3.90;;;3.50;;
80131;SDS011;69442;51.442;10.564;2023-06-19T14:37:12;3.58;;;2.78;;